Time;durP1;ratioP1;P1;durP2;ratioP2;P2;SDS_P1;SDS_P2;PMS_P1;PMS_P2;Temp;Humidity;BMP_temperature;BMP_pressure;BME280_temperature;BME280_humidity;BME280_pressure;Samples;Min_cycle;Max_cycle;Signal;HPM_P1;HPM_P2
2023/02/17 00:05:44;;;;;;;46.90;24.60;;;;;;;5.94;98.48;100896.23;214113;1290;96561;-91
2023/02/17 00:17:47;;;;;;;48.10;25.00;;;;;;;5.92;98.34;100880.23;213759;1292;139869;-91
2023/02/17 00:35:57;;;;;;;48.30;25.60;;;;;;;5.89;98.41;100865.66;214054;1289;96722;-92
2023/02/17 01:00:05;;;;;;;43.50;22.40;;;;;;;5.83;98.64;100860.45;213768;1289;138279;-90
2023/02/17 01:18:08;;;;;;;49.40;25.90;;;;;;;5.83;98.64;100844.75;213817;1289;138927;-92
2023/02/17 01:36:22;;;;;;;41.30;22.50;;;;;;;5.84;98.73;100809.60;214635;1289;97927;-92
2023/02/17 01:42:23;;;;;;;49.30;25.20;;;;;;;5.84;98.82;100811.02;214084;1288;97372;-93
2023/02/17 01:48:26;;;;;;;52.70;27.00;;;;;;;5.82;98.77;100802.20;213699;1292;138699;-93
2023/02/17 01:54:26;;;;;;;50.60;26.30;;;;;;;5.78;98.81;100791.34;213698;1294;96577;-89
2023/02/17 02:00:30;;;;;;;46.40;24.40;;;;;;;5.76;98.98;100785.56;213444;1289;138778;-92
2023/02/17 02:06:30;;;;;;;52.90;27.20;;;;;;;5.72;98.88;100778.69;213356;1292;138619;-90
2023/02/17 02:12:32;;;;;;;50.20;26.50;;;;;;;5.67;99.26;100763.55;214104;1288;138138;-91
2023/02/17 02:18:35;;;;;;;51.40;26.20;;;;;;;5.63;99.16;100766.29;213429;1289;139944;-89
2023/02/17 02:31:04;;;;;;;49.60;26.00;;;;;;;5.55;99.52;100749.75;213856;1292;138452;-91
2023/02/17 02:37:08;;;;;;;50.50;26.20;;;;;;;5.52;99.77;100754.24;213764;1289;138340;-91
2023/02/17 02:43:20;;;;;;;47.50;24.00;;;;;;;5.50;99.96;100752.70;214231;1292;109957;-94
2023/02/17 02:49:21;;;;;;;48.70;25.60;;;;;;;5.49;100.00;100734.10;213388;1292;138777;-91
2023/02/17 02:55:40;;;;;;;42.30;23.20;;;;;;;5.50;100.00;100726.96;214170;1293;110120;-89
2023/02/17 03:07:49;;;;;;;47.50;24.80;;;;;;;5.51;100.00;100719.77;213711;1288;138797;-90
2023/02/17 03:19:53;;;;;;;45.20;25.30;;;;;;;5.54;100.00;100707.94;213473;1290;139118;-90
2023/02/17 03:25:54;;;;;;;48.50;24.40;;;;;;;5.57;100.00;100713.64;214085;1288;110659;-88
2023/02/17 03:31:55;;;;;;;46.50;24.50;;;;;;;5.57;100.00;100702.88;214351;1288;109899;-89
2023/02/17 03:37:57;;;;;;;51.90;26.30;;;;;;;5.57;100.00;100701.95;213820;1288;138974;-91
2023/02/17 03:43:59;;;;;;;44.50;25.30;;;;;;;5.56;100.00;100692.02;214112;1290;111485;-92
2023/02/17 03:50:02;;;;;;;45.40;24.70;;;;;;;5.56;100.00;100685.45;213599;1288;138938;-91
2023/02/17 04:02:05;;;;;;;45.40;25.30;;;;;;;5.50;100.00;100671.38;213814;1288;139519;-90
2023/02/17 04:08:08;;;;;;;47.90;27.30;;;;;;;5.46;100.00;100672.80;213478;1288;139022;-88
2023/02/17 04:14:09;;;;;;;47.60;23.90;;;;;;;5.44;100.00;100666.02;214252;1289;110641;-88
2023/02/17 04:38:11;;;;;;;;;;;;;;;;;;;;;
2023/02/17 04:50:14;;;;;;;46.60;24.70;;;;;;;5.26;100.00;100629.17;213542;1289;139008;-88
2023/02/17 04:56:16;;;;;;;47.00;26.60;;;;;;;5.25;100.00;100626.11;214288;1294;139370;-90
2023/02/17 05:02:16;;;;;;;48.00;25.60;;;;;;;5.21;100.00;100612.70;214170;1291;241378;-89
2023/02/17 05:08:18;;;;;;;44.30;23.70;;;;;;;5.19;100.00;100600.65;213679;1289;138354;-89
2023/02/17 05:20:20;;;;;;;43.80;24.30;;;;;;;5.15;100.00;100596.06;213568;1292;138741;-87
2023/02/17 05:26:22;;;;;;;46.90;23.90;;;;;;;5.13;100.00;100599.88;213482;1292;138646;-86
2023/02/17 05:32:23;;;;;;;43.90;23.10;;;;;;;5.11;100.00;100595.90;213895;1291;138392;-88
2023/02/17 05:44:25;;;;;;;55.00;26.90;;;;;;;5.09;100.00;100585.94;214074;1288;97938;-87
2023/02/17 05:56:27;;;;;;;50.30;26.60;;;;;;;5.06;100.00;100570.96;213695;1288;139642;-87
2023/02/17 06:02:21;;;;;;;56.40;27.00;;;;;;;5.07;100.00;100567.16;214170;1288;139249;-87
2023/02/17 06:08:22;;;;;;;50.20;26.60;;;;;;;5.05;100.00;100571.08;213673;1288;138769;-88
2023/02/17 06:20:24;;;;;;;56.00;27.00;;;;;;;5.02;100.00;100554.52;213400;1288;138768;-87
2023/02/17 06:26:23;;;;;;;;;;;;;;;;;;;;;
2023/02/17 06:32:26;;;;;;;53.40;27.30;;;;;;;5.02;100.00;100552.27;214229;1289;138619;-85
2023/02/17 06:38:27;;;;;;;50.70;29.20;;;;;;;5.04;100.00;100558.64;213526;1288;138714;-85
2023/02/17 06:50:30;;;;;;;59.10;29.70;;;;;;;5.07;100.00;100546.42;214078;1288;138238;-86
2023/02/17 06:56:31;;;;;;;53.50;28.60;;;;;;;5.09;100.00;100534.27;213290;1289;139148;-86
2023/02/17 07:02:32;;;;;;;56.10;28.00;;;;;;;5.11;100.00;100540.59;214122;1292;138499;-86
2023/02/17 07:08:34;;;;;;;63.90;30.00;;;;;;;5.14;100.00;100538.63;213738;1288;138808;-86
2023/02/17 07:14:35;;;;;;;54.60;28.40;;;;;;;5.15;100.00;100527.48;214351;1291;96740;-85
2023/02/17 07:20:36;;;;;;;63.30;33.20;;;;;;;5.20;100.00;100537.00;213825;1293;139057;-84
2023/02/17 07:38:40;;;;;;;57.30;29.90;;;;;;;5.33;100.00;100519.66;214065;1288;138604;-85
2023/02/17 07:50:42;;;;;;;61.80;32.60;;;;;;;5.44;100.00;100512.22;213564;1288;140002;-85
2023/02/17 07:56:44;;;;;;;64.60;33.60;;;;;;;5.49;100.00;100507.95;213763;1288;139311;-85
2023/02/17 08:20:49;;;;;;;66.20;32.90;;;;;;;5.71;100.00;100495.30;213840;1291;138165;-86
2023/02/17 08:26:48;;;;;;;64.90;31.80;;;;;;;5.77;100.00;100498.45;213507;1288;138501;-85
2023/02/17 08:32:50;;;;;;;62.60;30.50;;;;;;;5.81;100.00;100491.84;214265;1289;139041;-85
2023/02/17 08:38:51;;;;;;;60.90;31.00;;;;;;;5.86;100.00;100482.86;213794;1288;138352;-86
2023/02/17 08:50:54;;;;;;;62.30;31.60;;;;;;;5.95;100.00;100469.09;215605;1288;138630;-88
2023/02/17 08:56:54;;;;;;;61.80;31.90;;;;;;;6.02;100.00;100462.02;213880;1292;138495;-85
2023/02/17 09:02:55;;;;;;;61.60;30.70;;;;;;;6.07;100.00;100457.19;214278;1288;97920;-85
2023/02/17 09:08:56;;;;;;;56.10;32.00;;;;;;;6.12;100.00;100443.92;213731;1288;138481;-85
2023/02/17 09:14:58;;;;;;;58.10;31.30;;;;;;;6.18;100.00;100440.35;214185;1289;140006;-85
2023/02/17 09:20:59;;;;;;;58.00;29.90;;;;;;;6.25;100.00;100438.67;209850;1289;5380479;-86
2023/02/17 09:27:05;;;;;;;58.40;30.30;;;;;;;6.32;100.00;100432.70;213556;1288;138602;-88
2023/02/17 09:33:06;;;;;;;52.90;29.50;;;;;;;6.39;100.00;100424.84;214424;1288;96603;-86
2023/02/17 09:38:54;;;;;;;54.80;28.80;;;;;;;6.47;100.00;100409.58;213810;1291;138656;-86
2023/02/17 09:45:07;;;;;;;53.90;29.60;;;;;;;6.53;100.00;100399.01;214279;1292;138722;-85
2023/02/17 09:51:08;;;;;;;60.30;31.00;;;;;;;6.62;100.00;100393.42;213573;1294;138539;-87
2023/02/17 10:03:25;;;;;;;46.90;26.20;;;;;;;6.80;100.00;100369.70;214213;1289;97857;-89
2023/02/17 10:09:29;;;;;;;46.10;26.50;;;;;;;6.90;100.00;100358.36;213891;1292;138572;-86
2023/02/17 10:15:33;;;;;;;48.10;27.10;;;;;;;6.99;100.00;100358.20;214677;1288;96632;-85
2023/02/17 10:21:37;;;;;;;43.40;25.90;;;;;;;7.07;100.00;100356.21;214720;1288;138543;-90
2023/02/17 10:27:44;;;;;;;43.70;24.80;;;;;;;7.15;100.00;100349.02;214398;1288;138905;-84
2023/02/17 10:40:01;;;;;;;44.00;26.00;;;;;;;7.31;100.00;100325.55;213850;1291;138976;-85
2023/02/17 10:46:13;;;;;;;43.50;26.70;;;;;;;7.38;100.00;100310.70;214399;1288;97049;-87
2023/02/17 10:52:16;;;;;;;49.30;26.60;;;;;;;7.45;100.00;100298.57;214551;1288;96706;-87
2023/02/17 10:58:17;;;;;;;45.10;25.90;;;;;;;7.54;100.00;100272.23;214217;1291;138625;-87
2023/02/17 11:04:18;;;;;;;41.00;24.60;;;;;;;7.62;100.00;100251.58;214938;1289;96730;-88
2023/02/17 11:10:20;;;;;;;46.50;27.00;;;;;;;7.70;100.00;100235.39;214257;1289;139346;-88
2023/02/17 11:16:24;;;;;;;44.20;27.80;;;;;;;7.79;100.00;100224.67;214546;1288;138283;-85
2023/02/17 11:22:24;;;;;;;37.60;25.30;;;;;;;7.87;100.00;100201.58;217683;1289;109949;-88
2023/02/17 11:34:34;;;;;;;40.40;24.80;;;;;;;8.02;100.00;100167.64;214471;1289;108811;-89
2023/02/17 11:40:35;;;;;;;36.50;23.70;;;;;;;8.08;100.00;100151.84;213967;1291;138596;-87
2023/02/17 11:46:36;;;;;;;42.90;26.70;;;;;;;8.13;100.00;100139.01;213778;1288;138936;-87
2023/02/17 11:52:39;;;;;;;39.60;25.40;;;;;;;8.19;100.00;100127.75;214256;1292;109475;-86
2023/02/17 12:05:01;;;;;;;37.20;24.00;;;;;;;8.28;100.00;100109.75;215592;1289;109654;-88
2023/02/17 12:17:21;;;;;;;39.90;25.00;;;;;;;8.35;100.00;100078.67;214079;1292;139471;-88
2023/02/17 12:23:28;;;;;;;37.60;23.90;;;;;;;8.36;100.00;100067.95;214400;1289;106445;-90
2023/02/17 12:29:27;;;;;;;42.20;25.70;;;;;;;8.37;100.00;100054.73;214248;1288;139726;-87
2023/02/17 12:35:38;;;;;;;35.30;23.00;;;;;;;8.38;100.00;100052.40;214503;1292;105245;-87
2023/02/17 12:41:48;;;;;;;33.30;23.00;;;;;;;8.39;100.00;100033.29;214024;1291;139790;-90
2023/02/17 12:47:53;;;;;;;;;;;;;;;;;;;;;
2023/02/17 12:53:56;;;;;;;34.70;22.90;;;;;;;8.44;100.00;100003.59;214722;1293;104451;-91
2023/02/17 13:00:04;;;;;;;35.90;24.50;;;;;;;8.46;100.00;99988.73;213966;1289;138583;-89
2023/02/17 13:05:52;;;;;;;38.00;24.40;;;;;;;8.47;100.00;99969.15;214443;1291;106533;-89
2023/02/17 13:12:03;;;;;;;;;;;;;;;;;;;;;
2023/02/17 13:18:07;;;;;;;;;;;;;;;;;;;;;
2023/02/17 13:24:07;;;;;;;;;;;;;;;;;;;;;
2023/02/17 13:30:24;;;;;;;37.60;24.40;;;;;;;8.52;100.00;99904.00;213991;1294;138407;-90
2023/02/17 13:36:24;;;;;;;33.90;21.70;;;;;;;8.54;100.00;99889.77;214463;1288;138468;-92
2023/02/17 13:42:28;;;;;;;35.30;21.00;;;;;;;8.54;100.00;99871.36;215206;1292;105819;-88
2023/02/17 13:48:28;;;;;;;32.20;20.10;;;;;;;8.55;100.00;99850.05;214954;1289;139846;-90
2023/02/17 13:54:27;;;;;;;32.80;19.00;;;;;;;8.57;100.00;99830.40;215422;1289;103865;-90
2023/02/17 14:00:28;;;;;;;35.30;19.60;;;;;;;8.58;100.00;99821.64;214356;1292;139304;-90
2023/02/17 14:06:29;;;;;;;34.00;20.40;;;;;;;8.59;100.00;99808.17;213882;1292;138720;-88
2023/02/17 14:12:22;;;;;;;;;;;;;;;;;;;;;
2023/02/17 14:18:30;;;;;;;30.20;19.20;;;;;;;8.60;100.00;99778.09;214476;1294;139458;-90
2023/02/17 14:24:31;;;;;;;30.40;18.20;;;;;;;8.63;100.00;99771.77;214984;1289;104453;-89
2023/02/17 14:36:57;;;;;;;27.10;18.10;;;;;;;8.70;100.00;99744.70;213973;1292;138812;-89
2023/02/17 14:42:59;;;;;;;28.30;18.10;;;;;;;8.74;100.00;99740.05;215045;1289;105445;-93
2023/02/17 14:55:01;;;;;;;28.40;17.40;;;;;;;8.79;100.00;99732.86;216959;1291;105811;-88
2023/02/17 15:07:05;;;;;;;24.50;16.10;;;;;;;8.84;100.00;99722.48;214178;1292;139796;-91
2023/02/17 15:12:57;;;;;;;;;;;;;;;;;;;;;
2023/02/17 15:18:51;;;;;;;;;;;;;;;;;;;;;
2023/02/17 15:24:55;;;;;;;22.60;14.10;;;;;;;8.95;100.00;99711.89;216484;1289;138399;-89
2023/02/17 15:30:57;;;;;;;24.30;15.30;;;;;;;9.00;100.00;99696.77;214017;1289;139605;-93
2023/02/17 15:36:58;;;;;;;28.60;16.50;;;;;;;9.04;100.00;99687.38;214189;1291;138718;-88
2023/02/17 15:43:00;;;;;;;25.70;16.90;;;;;;;9.10;100.00;99692.83;214636;1292;138838;-90
2023/02/17 15:55:07;;;;;;;23.60;15.40;;;;;;;9.18;100.00;99682.59;214420;1293;138926;-93
2023/02/17 16:01:27;;;;;;;22.00;14.20;;;;;;;9.22;100.00;99688.10;214040;1292;139305;-88
2023/02/17 16:07:28;;;;;;;21.40;14.10;;;;;;;9.26;100.00;99684.36;212889;1300;138426;-91
2023/02/17 16:13:29;;;;;;;20.00;13.30;;;;;;;9.29;100.00;99674.17;214218;1294;107832;-90
2023/02/17 16:19:32;;;;;;;20.20;12.60;;;;;;;9.34;100.00;99669.41;214040;1293;138793;-87
2023/02/17 16:25:31;;;;;;;22.50;13.50;;;;;;;9.40;100.00;99657.90;214639;1292;107568;-87
2023/02/17 16:31:34;;;;;;;18.80;12.80;;;;;;;9.44;100.00;99659.63;213728;1291;138705;-90
2023/02/17 16:37:34;;;;;;;18.00;11.30;;;;;;;9.48;100.00;99660.04;213457;1293;139653;-90
2023/02/17 16:43:35;;;;;;;18.80;11.60;;;;;;;9.53;100.00;99655.65;214869;1294;108492;-89
2023/02/17 17:01:41;;;;;;;17.70;10.50;;;;;;;9.71;100.00;99650.05;213973;1293;138130;-87
2023/02/17 17:19:45;;;;;;;14.00;8.90;;;;;;;9.87;100.00;99633.81;213873;1295;138279;-88
2023/02/17 17:25:47;;;;;;;15.60;10.10;;;;;;;9.93;100.00;99634.38;214230;1295;97944;-90
2023/02/17 17:31:48;;;;;;;14.50;9.30;;;;;;;9.98;100.00;99637.14;213794;1295;140216;-87
2023/02/17 17:43:50;;;;;;;14.50;8.70;;;;;;;10.07;100.00;99634.33;214330;1290;96997;-87
2023/02/17 17:55:52;;;;;;;14.60;8.10;;;;;;;10.09;100.00;99629.31;214163;1292;138448;-89
2023/02/17 18:01:54;;;;;;;13.10;8.20;;;;;;;10.11;100.00;99632.23;214120;1292;139012;-88
2023/02/17 18:07:55;;;;;;;11.20;7.10;;;;;;;10.14;100.00;99631.19;213422;1291;138469;-88
2023/02/17 18:13:56;;;;;;;15.10;7.10;;;;;;;10.17;100.00;99618.71;213839;1295;139153;-89
2023/02/17 18:31:52;;;;;;;;;;;;;;;;;;;;;
2023/02/17 18:37:54;;;;;;;9.60;5.70;;;;;;;10.35;100.00;99602.05;213698;1292;139547;-92
2023/02/17 18:43:56;;;;;;;10.60;5.50;;;;;;;10.39;100.00;99601.88;214118;1291;138223;-88
2023/02/17 18:49:57;;;;;;;11.60;6.10;;;;;;;10.41;100.00;99608.00;213604;1292;139247;-88
2023/02/17 18:55:59;;;;;;;9.50;5.30;;;;;;;10.40;100.00;99601.40;214471;1289;138349;-86
2023/02/17 19:02:06;;;;;;;12.00;6.10;;;;;;;10.42;100.00;99604.92;214311;1288;138160;-85
2023/02/17 19:08:08;;;;;;;12.80;5.50;;;;;;;10.45;100.00;99606.81;214336;1289;138886;-87
2023/02/17 19:14:09;;;;;;;13.70;6.10;;;;;;;10.47;100.00;99612.70;214942;1289;139289;-86
2023/02/17 19:20:10;;;;;;;12.60;6.40;;;;;;;10.48;100.00;99597.70;213960;1293;138946;-87
2023/02/17 19:26:11;;;;;;;12.90;6.90;;;;;;;10.45;100.00;99618.06;214437;1292;96584;-87
2023/02/17 19:32:12;;;;;;;12.50;6.50;;;;;;;10.45;100.00;99624.81;214209;1289;138192;-87
2023/02/17 19:38:05;;;;;;;11.60;5.80;;;;;;;10.43;100.00;99638.88;213570;1288;138929;-87
2023/02/17 19:50:09;;;;;;;9.30;4.50;;;;;;;10.22;100.00;99679.20;213686;1288;139037;-88
2023/02/17 19:56:10;;;;;;;7.60;3.60;;;;;;;10.11;100.00;99700.48;214078;1291;138483;-85
2023/02/17 20:02:13;;;;;;;7.80;2.50;;;;;;;9.97;100.00;99722.96;213960;1292;138652;-89
2023/02/17 20:08:13;;;;;;;10.10;4.30;;;;;;;9.78;100.00;99732.88;213566;1289;138988;-87
2023/02/17 20:20:18;;;;;;;4.30;1.30;;;;;;;9.35;99.92;99727.30;213406;1292;139118;-87
2023/02/17 20:26:20;;;;;;;6.80;1.20;;;;;;;9.14;97.97;99735.91;214016;1293;105961;-86
2023/02/17 20:32:21;;;;;;;6.50;1.40;;;;;;;8.94;95.80;99737.90;214001;1294;243513;-87
2023/02/17 20:38:21;;;;;;;8.20;2.20;;;;;;;8.77;96.22;99737.38;213657;1292;137736;-87
2023/02/17 20:44:24;;;;;;;5.30;1.40;;;;;;;8.57;95.88;99747.73;214211;1291;109501;-87
2023/02/17 20:50:24;;;;;;;7.20;1.40;;;;;;;8.41;94.68;99757.77;213817;1294;138085;-87
2023/02/17 21:02:27;;;;;;;8.10;1.70;;;;;;;8.14;93.72;99756.26;214313;1292;106848;-86
2023/02/17 21:08:29;;;;;;;9.20;2.40;;;;;;;8.03;94.42;99761.77;213664;1289;137976;-87
2023/02/17 21:14:30;;;;;;;9.30;1.70;;;;;;;7.93;94.69;99765.02;214342;1288;137887;-87
2023/02/17 21:20:56;;;;;;;4.60;1.50;;;;;;;7.91;95.12;99757.49;209751;1289;5353726;-86
2023/02/17 21:26:41;;;;;;;6.70;1.20;;;;;;;7.79;95.47;99759.25;213960;1289;138279;-88
2023/02/17 21:32:35;;;;;;;11.60;2.40;;;;;;;7.72;93.71;99768.71;214674;1289;96802;-88
2023/02/17 21:38:36;;;;;;;11.30;2.00;;;;;;;7.70;89.99;99767.35;214112;1292;138396;-90
2023/02/17 22:02:32;;;;;;;7.90;1.30;;;;;;;7.40;89.33;99799.43;214266;1292;138503;-89
2023/02/17 22:08:33;;;;;;;9.90;1.80;;;;;;;7.30;89.26;99800.79;213617;1289;138161;-88
2023/02/17 22:14:59;;;;;;;10.70;2.20;;;;;;;7.27;89.13;99807.00;214342;1288;138335;-89
2023/02/17 22:20:36;;;;;;;11.50;1.90;;;;;;;7.21;90.16;99815.42;213594;1289;138644;-89
2023/02/17 22:26:37;;;;;;;9.20;1.50;;;;;;;7.18;90.68;99828.52;213539;1290;138658;-89
2023/02/17 22:32:39;;;;;;;8.80;1.90;;;;;;;7.12;91.63;99820.14;214269;1288;96569;-89
2023/02/17 22:38:39;;;;;;;12.50;2.30;;;;;;;7.12;90.47;99837.42;214089;1291;137674;-84
2023/02/17 22:44:41;;;;;;;11.20;2.10;;;;;;;7.11;90.65;99857.34;214986;1292;96697;-91
2023/02/17 22:50:43;;;;;;;15.00;2.30;;;;;;;7.07;90.26;99863.77;213924;1289;137582;-91
2023/02/17 22:56:44;;;;;;;11.50;2.10;;;;;;;7.01;90.47;99867.50;213888;1291;138390;-87
2023/02/17 23:02:45;;;;;;;12.10;2.10;;;;;;;6.93;90.94;99886.44;213919;1291;138721;-88
2023/02/17 23:08:45;;;;;;;12.70;2.10;;;;;;;6.87;91.22;99891.57;213435;1288;138666;-92
2023/02/17 23:14:46;;;;;;;12.10;2.60;;;;;;;6.85;91.77;99894.11;214002;1292;138028;-90
2023/02/17 23:20:48;;;;;;;14.00;2.30;;;;;;;6.85;90.55;99898.65;213914;1292;138121;-88
2023/02/17 23:26:49;;;;;;;11.40;2.30;;;;;;;6.87;89.74;99904.23;214375;1289;138242;-87
2023/02/17 23:32:50;;;;;;;13.20;1.90;;;;;;;6.87;90.41;99916.34;214530;1289;139502;-88
2023/02/17 23:38:54;;;;;;;18.70;3.00;;;;;;;6.87;89.97;99922.98;213662;1289;138417;-91
2023/02/17 23:50:55;;;;;;;13.30;2.80;;;;;;;6.81;89.91;99928.66;213233;1288;138881;-86
2023/02/17 23:57:05;;;;;;;12.00;2.40;;;;;;;6.80;89.29;99943.95;213848;1288;138237;-92
